createdAt,value
2023-03-20T00:02:07.013Z,4.90
2023-03-20T00:04:34.182Z,4.80
2023-03-20T00:07:00.904Z,4.50
2023-03-20T00:09:28.369Z,4.93
2023-03-20T00:11:55.967Z,4.65
2023-03-20T00:14:24.690Z,5.13
2023-03-20T00:16:52.079Z,5.75
2023-03-20T00:19:32.109Z,5.07
2023-03-20T00:21:58.837Z,5.20
2023-03-20T00:24:25.519Z,4.72
2023-03-20T00:26:53.211Z,4.60
2023-03-20T00:29:31.015Z,5.10
2023-03-20T00:31:58.483Z,5.18
2023-03-20T00:34:29.063Z,5.07
2023-03-20T00:36:56.433Z,5.35
2023-03-20T00:39:23.835Z,5.32
2023-03-20T00:41:57.705Z,5.13
2023-03-20T00:44:50.410Z,5.22
2023-03-20T00:47:20.673Z,5.90
2023-03-20T00:49:50.768Z,5.88
2023-03-20T00:52:18.606Z,6.25
2023-03-20T00:54:45.474Z,6.72
2023-03-20T00:57:38.411Z,8.02
2023-03-20T01:00:07.464Z,7.85
2023-03-20T01:02:55.755Z,11.65
2023-03-20T01:05:25.802Z,10.68
2023-03-20T01:07:54.055Z,9.80
2023-03-20T01:10:27.914Z,10.55
2023-03-20T01:12:56.495Z,10.90
2023-03-20T01:15:27.489Z,10.35
2023-03-20T01:17:54.090Z,12.23
2023-03-20T01:20:27.424Z,15.57
2023-03-20T01:22:54.628Z,15.80
2023-03-20T01:25:21.414Z,17.05
2023-03-20T01:27:53.167Z,21.63
2023-03-20T01:30:26.855Z,23.02
2023-03-20T01:32:54.289Z,24.60
2023-03-20T01:35:24.146Z,26.85
2023-03-20T01:37:52.284Z,27.00
2023-03-20T01:40:33.748Z,28.58
2023-03-20T01:43:03.360Z,27.35
2023-03-20T01:45:36.129Z,27.55
2023-03-20T01:48:17.030Z,28.45
2023-03-20T01:50:43.707Z,26.03
2023-03-20T01:53:26.153Z,28.02
2023-03-20T01:55:59.766Z,29.70
2023-03-20T01:58:38.977Z,30.65
2023-03-20T02:01:09.211Z,28.93
2023-03-20T02:03:36.616Z,30.83
2023-03-20T02:06:32.490Z,30.53
2023-03-20T02:09:16.730Z,33.07
2023-03-20T02:11:46.383Z,32.63
2023-03-20T02:14:14.142Z,34.05
2023-03-20T02:16:59.305Z,34.60
2023-03-20T02:20:14.586Z,34.00
2023-03-20T02:23:23.259Z,32.67
2023-03-20T02:26:15.543Z,31.92
2023-03-20T02:29:16.876Z,34.20
2023-03-20T02:32:05.062Z,34.30
2023-03-20T02:35:06.743Z,35.58
2023-03-20T02:38:19.798Z,36.53
2023-03-20T02:41:09.904Z,35.22
2023-03-20T02:43:48.615Z,36.40
2023-03-20T02:46:39.819Z,35.93
2023-03-20T02:49:28.292Z,35.22
2023-03-20T02:52:05.745Z,35.67
2023-03-20T02:54:50.923Z,37.27
2023-03-20T02:57:36.646Z,34.67
2023-03-20T03:00:14.184Z,36.53
2023-03-20T03:03:19.553Z,35.43
2023-03-20T03:06:06.035Z,34.67
2023-03-20T03:08:39.343Z,36.93
2023-03-20T03:11:08.673Z,35.17
2023-03-20T03:13:42.739Z,34.83
2023-03-20T03:16:14.465Z,34.67
2023-03-20T03:18:43.218Z,33.45
2023-03-20T03:21:16.382Z,35.27
2023-03-20T03:23:48.735Z,35.50
2023-03-20T03:26:23.802Z,36.10
2023-03-20T03:29:04.798Z,38.58
2023-03-20T03:31:32.795Z,34.70
2023-03-20T03:34:01.420Z,34.80
2023-03-20T03:36:56.117Z,36.30
2023-03-20T03:39:52.362Z,35.42
2023-03-20T03:42:39.588Z,36.20
2023-03-20T03:45:17.361Z,35.90
2023-03-20T03:47:52.143Z,35.67
2023-03-20T03:50:29.626Z,34.00
2023-03-20T03:53:02.858Z,32.90
2023-03-20T03:55:37.555Z,35.37
2023-03-20T03:58:09.882Z,32.20
2023-03-20T04:00:38.888Z,31.27
2023-03-20T04:03:07.376Z,31.40
2023-03-20T04:05:37.730Z,31.33
2023-03-20T04:08:06.396Z,30.33
2023-03-20T04:10:33.371Z,29.03
2023-03-20T04:13:00.407Z,29.87
2023-03-20T04:15:27.918Z,29.10
2023-03-20T04:17:55.245Z,26.33
2023-03-20T04:20:23.539Z,27.27
2023-03-20T04:22:50.524Z,26.27
2023-03-20T04:25:21.280Z,26.93
2023-03-20T04:27:49.340Z,26.17
2023-03-20T04:30:38.860Z,26.10
2023-03-20T04:33:14.986Z,27.10
2023-03-20T04:36:12.444Z,27.10
2023-03-20T04:38:40.443Z,27.83
2023-03-20T04:41:08.821Z,28.07
2023-03-20T04:43:35.975Z,28.40
2023-03-20T04:46:02.761Z,30.93
2023-03-20T04:48:29.706Z,30.80
2023-03-20T04:50:56.700Z,31.37
2023-03-20T04:53:30.066Z,31.57
2023-03-20T04:55:56.714Z,29.43
2023-03-20T04:58:23.731Z,30.27
2023-03-20T05:00:50.770Z,30.37
2023-03-20T05:03:17.594Z,31.77
2023-03-20T05:05:44.401Z,29.70
2023-03-20T05:08:11.359Z,29.93
2023-03-20T05:10:38.815Z,29.97
2023-03-20T05:13:34.592Z,30.37
2023-03-20T05:16:16.232Z,31.03
2023-03-20T05:19:15.387Z,29.40
2023-03-20T05:22:01.214Z,31.93
2023-03-20T05:24:50.369Z,32.20
2023-03-20T05:27:32.686Z,31.77
2023-03-20T05:30:19.696Z,31.80
2023-03-20T05:33:15.615Z,31.77
2023-03-20T05:35:54.139Z,30.97
2023-03-20T05:38:31.923Z,32.83
2023-03-20T05:41:25.527Z,31.77
2023-03-20T05:44:04.995Z,31.23
2023-03-20T05:46:54.502Z,31.97
2023-03-20T05:49:53.226Z,32.63
2023-03-20T05:52:36.994Z,32.37
2023-03-20T05:55:10.898Z,31.80
2023-03-20T05:57:50.759Z,34.13
2023-03-20T06:00:27.090Z,32.93
2023-03-20T06:03:13.965Z,33.33
2023-03-20T06:05:55.692Z,31.43
2023-03-20T06:08:22.320Z,32.30
2023-03-20T06:10:52.503Z,33.37
2023-03-20T06:13:19.940Z,35.37
2023-03-20T06:15:46.676Z,33.13
2023-03-20T06:18:16.691Z,31.87
2023-03-20T06:20:43.429Z,32.30
2023-03-20T06:23:10.074Z,31.00
2023-03-20T06:25:36.825Z,31.10
2023-03-20T06:28:04.083Z,31.17
2023-03-20T06:30:31.017Z,32.67
2023-03-20T06:32:58.570Z,33.33
2023-03-20T06:35:33.901Z,32.53
2023-03-20T06:38:01.340Z,31.10
2023-03-20T06:40:28.221Z,27.30
2023-03-20T06:42:55.543Z,27.07
2023-03-20T06:45:24.571Z,27.40
2023-03-20T06:47:59.756Z,28.08
2023-03-20T06:50:27.201Z,26.13
2023-03-20T06:52:54.027Z,27.57
2023-03-20T06:55:47.081Z,25.27
2023-03-20T06:58:13.676Z,24.23
2023-03-20T07:00:40.639Z,23.90
2023-03-20T07:03:08.707Z,23.43
2023-03-20T07:05:35.758Z,22.90
2023-03-20T07:08:07.646Z,23.25
2023-03-20T07:10:35.746Z,23.67
2023-03-20T07:13:02.393Z,19.42
2023-03-20T07:15:30.176Z,19.88
2023-03-20T07:17:57.310Z,19.40
2023-03-20T07:20:26.595Z,16.92
2023-03-20T07:22:53.628Z,16.33
2023-03-20T07:25:41.294Z,17.98
2023-03-20T07:28:11.641Z,17.23
2023-03-20T07:30:42.010Z,16.70
2023-03-20T07:33:09.382Z,17.35
2023-03-20T07:35:36.492Z,16.83
2023-03-20T07:38:03.402Z,15.23
2023-03-20T07:40:30.724Z,15.25
2023-03-20T07:43:01.943Z,16.15
2023-03-20T07:46:07.898Z,15.95
2023-03-20T07:48:36.809Z,15.00
2023-03-20T07:51:03.820Z,13.68
2023-03-20T07:53:30.525Z,13.35
2023-03-20T07:55:57.146Z,12.80
2023-03-20T07:58:23.746Z,13.90
2023-03-20T08:00:50.546Z,12.48
2023-03-20T08:03:17.390Z,13.00
2023-03-20T08:05:45.853Z,12.40
2023-03-20T08:08:13.723Z,12.13
2023-03-20T08:10:40.507Z,12.23
2023-03-20T08:13:07.314Z,11.35
2023-03-20T08:15:34.082Z,12.15
2023-03-20T08:18:00.844Z,12.52
2023-03-20T08:20:27.642Z,13.55
2023-03-20T08:22:54.193Z,13.55
2023-03-20T08:25:20.785Z,13.27
2023-03-20T08:27:48.719Z,11.85
2023-03-20T08:30:15.981Z,13.07
2023-03-20T08:32:42.588Z,12.57
2023-03-20T08:35:22.035Z,12.82
2023-03-20T08:37:56.236Z,11.48
2023-03-20T08:40:23.043Z,12.20
2023-03-20T08:42:49.652Z,11.70
2023-03-20T08:45:17.086Z,12.23
2023-03-20T08:47:43.747Z,11.80
2023-03-20T08:50:11.230Z,11.27
2023-03-20T08:52:37.823Z,11.68
2023-03-20T08:55:04.772Z,11.15
2023-03-20T08:57:31.343Z,11.18
2023-03-20T08:59:58.054Z,11.13
2023-03-20T09:02:36.120Z,11.55
2023-03-20T09:05:03.075Z,10.63
2023-03-20T09:07:29.781Z,10.23
2023-03-20T09:09:56.351Z,10.20
2023-03-20T09:12:22.952Z,10.32
2023-03-20T09:14:49.746Z,9.63
2023-03-20T09:17:16.807Z,8.45
2023-03-20T09:19:44.738Z,7.63
2023-03-20T09:22:15.415Z,8.45
2023-03-20T09:24:41.973Z,7.45
2023-03-20T09:27:08.654Z,7.93
2023-03-20T09:29:35.731Z,7.85
2023-03-20T09:32:02.396Z,7.93
2023-03-20T09:34:29.482Z,7.53
2023-03-20T09:36:56.199Z,7.53
2023-03-20T09:39:23.321Z,7.45
2023-03-20T09:41:57.245Z,7.20
2023-03-20T09:45:03.559Z,6.88
2023-03-20T09:47:47.001Z,6.10
2023-03-20T09:50:26.028Z,5.53
2023-03-20T09:53:38.669Z,5.82
2023-03-20T09:56:10.782Z,5.63
2023-03-20T09:58:38.602Z,5.00
2023-03-20T10:01:08.426Z,5.53
2023-03-20T10:03:51.135Z,5.55
2023-03-20T10:06:18.364Z,5.50
2023-03-20T10:08:46.848Z,5.30
2023-03-20T10:11:46.512Z,5.57
2023-03-20T10:14:37.975Z,5.20
2023-03-20T10:17:19.545Z,5.55
2023-03-20T10:19:49.074Z,5.97
2023-03-20T10:22:15.623Z,5.22
2023-03-20T10:24:49.799Z,5.32
2023-03-20T10:27:28.223Z,5.35
2023-03-20T10:30:13.840Z,5.70
2023-03-20T10:32:52.736Z,5.78
2023-03-20T10:35:26.317Z,5.75
2023-03-20T10:38:15.154Z,5.82
2023-03-20T10:40:43.432Z,6.05
2023-03-20T10:43:21.844Z,6.07
2023-03-20T10:45:53.955Z,5.93
2023-03-20T10:48:27.116Z,5.85
2023-03-20T10:51:00.401Z,5.43
2023-03-20T10:53:32.645Z,5.05
2023-03-20T10:56:05.313Z,4.50
2023-03-20T10:58:37.594Z,4.72
2023-03-20T11:01:04.713Z,4.65
2023-03-20T11:03:32.835Z,3.92
2023-03-20T11:06:09.753Z,4.05
2023-03-20T11:08:41.164Z,3.65
2023-03-20T11:11:08.407Z,3.42
2023-03-20T11:13:41.932Z,3.08
2023-03-20T11:16:23.117Z,2.70
2023-03-20T11:18:52.236Z,2.20
2023-03-20T11:21:27.868Z,2.70
2023-03-20T11:23:55.354Z,2.35
2023-03-20T11:26:34.116Z,2.65
2023-03-20T11:29:01.100Z,2.50
2023-03-20T11:31:37.095Z,2.45
2023-03-20T11:34:16.017Z,2.90
2023-03-20T11:37:10.553Z,2.80
2023-03-20T11:39:39.870Z,2.83
2023-03-20T11:42:24.102Z,3.00
2023-03-20T11:45:01.483Z,3.03
2023-03-20T11:47:32.674Z,3.20
2023-03-20T11:50:01.629Z,3.58
2023-03-20T11:52:33.301Z,2.88
2023-03-20T11:55:03.313Z,3.30
2023-03-20T11:57:31.969Z,3.20
2023-03-20T12:00:02.540Z,3.10
2023-03-20T12:02:51.460Z,3.28
2023-03-20T12:05:29.994Z,3.17
2023-03-20T12:08:01.013Z,3.35
2023-03-20T12:10:32.948Z,3.38
2023-03-20T12:13:05.496Z,2.80
2023-03-20T12:15:37.066Z,3.10
2023-03-20T12:18:21.487Z,3.33
2023-03-20T12:21:06.555Z,2.70
2023-03-20T12:23:33.153Z,3.00
2023-03-20T12:26:11.018Z,3.05
2023-03-20T12:28:48.311Z,2.88
2023-03-20T12:31:26.569Z,2.70
2023-03-20T12:33:53.358Z,2.90
2023-03-20T12:36:31.731Z,2.70
2023-03-20T12:38:59.095Z,2.78
2023-03-20T12:41:30.572Z,2.55
2023-03-20T12:44:06.105Z,2.65
2023-03-20T12:46:56.127Z,2.70
2023-03-20T12:49:43.144Z,2.47
2023-03-20T12:52:45.895Z,2.65
2023-03-20T12:55:31.041Z,2.90
2023-03-20T12:58:07.246Z,2.60
2023-03-20T13:00:40.445Z,2.80
2023-03-20T13:03:33.246Z,2.38
2023-03-20T13:06:15.551Z,2.95
2023-03-20T13:09:02.577Z,3.40
2023-03-20T13:11:55.676Z,3.10
2023-03-20T13:14:34.351Z,3.00
2023-03-20T13:17:20.455Z,2.72
2023-03-20T13:19:55.652Z,3.33
2023-03-20T13:22:34.374Z,3.33
2023-03-20T13:25:11.396Z,3.47
2023-03-20T13:27:57.385Z,3.30
2023-03-20T13:30:33.363Z,3.50
2023-03-20T13:33:18.875Z,3.88
2023-03-20T13:35:59.075Z,3.78
2023-03-20T13:38:31.444Z,4.00
2023-03-20T13:41:04.201Z,3.42
2023-03-20T13:43:34.471Z,3.60
2023-03-20T13:46:09.892Z,4.32
2023-03-20T13:48:38.929Z,3.80
2023-03-20T13:51:11.634Z,3.90
2023-03-20T13:53:47.426Z,3.90
2023-03-20T13:56:44.282Z,3.78
2023-03-20T13:59:29.846Z,3.85
2023-03-20T14:02:08.584Z,3.88
2023-03-20T14:04:35.469Z,3.38
2023-03-20T14:07:02.174Z,3.72
2023-03-20T14:09:37.009Z,3.42
2023-03-20T14:12:08.782Z,3.42
2023-03-20T14:14:56.434Z,3.80
2023-03-20T14:17:32.496Z,3.33
2023-03-20T14:20:12.644Z,3.30
2023-03-20T14:22:43.571Z,3.20
2023-03-20T14:25:18.341Z,2.83
2023-03-20T14:28:23.184Z,2.67
2023-03-20T14:30:51.403Z,3.40
2023-03-20T14:33:18.840Z,2.47
2023-03-20T14:35:50.409Z,2.70
2023-03-20T14:38:30.715Z,2.42
2023-03-20T14:41:04.826Z,2.45
2023-03-20T14:43:45.647Z,2.40
2023-03-20T14:46:30.610Z,2.53
2023-03-20T14:48:57.270Z,2.47
2023-03-20T14:51:56.698Z,2.30
2023-03-20T14:54:29.567Z,2.42
2023-03-20T14:57:07.993Z,2.40
2023-03-20T14:59:34.849Z,2.30
2023-03-20T15:02:03.155Z,2.40
2023-03-20T15:04:37.704Z,2.30
2023-03-20T15:07:13.507Z,2.35
2023-03-20T15:09:44.051Z,2.58
2023-03-20T15:12:15.244Z,2.50
2023-03-20T15:15:00.866Z,2.72
2023-03-20T15:17:36.296Z,2.85
2023-03-20T15:20:10.080Z,3.10
2023-03-20T15:22:48.361Z,2.85
2023-03-20T15:25:19.554Z,2.95
2023-03-20T15:27:47.264Z,2.90
2023-03-20T15:30:19.785Z,2.83
2023-03-20T15:32:49.285Z,3.10
2023-03-20T15:35:20.980Z,2.67
2023-03-20T15:37:49.690Z,2.75
2023-03-20T15:40:24.426Z,4.00
2023-03-20T15:43:04.358Z,2.83
2023-03-20T15:45:38.500Z,5.60
2023-03-20T15:48:06.868Z,3.20
2023-03-20T15:50:38.644Z,2.28
2023-03-20T15:53:11.091Z,3.50
2023-03-20T15:55:38.467Z,3.22
2023-03-20T15:58:05.395Z,2.60
2023-03-20T16:00:34.020Z,2.40
2023-03-20T16:03:08.024Z,2.92
2023-03-20T16:05:35.776Z,2.50
2023-03-20T16:08:14.914Z,2.72
2023-03-20T16:10:43.301Z,2.58
2023-03-20T16:13:18.846Z,2.70
2023-03-20T16:15:46.493Z,2.75
2023-03-20T16:18:16.619Z,2.83
2023-03-20T16:20:57.974Z,2.60
2023-03-20T16:23:33.917Z,2.78
2023-03-20T16:26:01.130Z,2.38
2023-03-20T16:28:28.693Z,2.35
2023-03-20T16:31:11.755Z,2.78
2023-03-20T16:33:40.322Z,2.22
2023-03-20T16:36:07.774Z,2.38
2023-03-20T16:38:37.415Z,2.60
2023-03-20T16:41:33.596Z,2.40
2023-03-20T16:44:08.126Z,2.42
2023-03-20T16:46:34.787Z,2.15
2023-03-20T16:49:29.644Z,2.20
2023-03-20T16:51:59.701Z,2.33
2023-03-20T16:54:31.117Z,2.42
2023-03-20T16:56:58.106Z,3.33
2023-03-20T16:59:26.001Z,3.72
2023-03-20T17:01:54.278Z,2.92
2023-03-20T17:04:33.782Z,3.58
2023-03-20T17:07:06.622Z,3.50
2023-03-20T17:09:33.523Z,2.70
2023-03-20T17:12:03.434Z,2.88
2023-03-20T17:14:30.090Z,2.60
2023-03-20T17:16:59.584Z,2.60
2023-03-20T17:19:26.228Z,4.85
2023-03-20T17:21:53.238Z,4.30
2023-03-20T17:24:20.018Z,2.97
2023-03-20T17:26:54.013Z,2.50
2023-03-20T17:29:20.784Z,2.63
2023-03-20T17:31:47.425Z,3.85
2023-03-20T17:34:14.950Z,4.55
2023-03-20T17:36:42.049Z,4.68
2023-03-20T17:39:16.907Z,3.80
2023-03-20T17:41:43.656Z,3.50
2023-03-20T17:44:10.509Z,6.63
2023-03-20T17:46:53.904Z,6.75
2023-03-20T17:49:27.412Z,7.15
2023-03-20T17:51:54.749Z,8.43
2023-03-20T17:54:21.612Z,9.43
2023-03-20T17:56:48.244Z,8.50
2023-03-20T17:59:15.126Z,6.25
2023-03-20T18:01:42.618Z,5.35
2023-03-20T18:04:20.934Z,5.30
2023-03-20T18:06:48.973Z,5.13
2023-03-20T18:09:16.137Z,8.93
2023-03-20T18:11:42.747Z,12.77
2023-03-20T18:14:12.236Z,22.45
2023-03-20T18:16:38.983Z,10.05
2023-03-20T18:19:05.689Z,12.45
2023-03-20T18:21:32.324Z,20.15
2023-03-20T18:23:58.961Z,15.50
2023-03-20T18:26:27.472Z,14.48
2023-03-20T18:28:55.332Z,8.38
2023-03-20T18:31:22.668Z,11.52
2023-03-20T18:33:51.661Z,7.88
2023-03-20T18:36:23.896Z,5.45
2023-03-20T18:38:51.900Z,4.28
2023-03-20T18:41:18.901Z,5.78
2023-03-20T18:43:48.521Z,4.10
2023-03-20T18:46:18.135Z,4.38
2023-03-20T18:48:46.203Z,9.50
2023-03-20T18:51:13.735Z,9.05
2023-03-20T18:53:41.196Z,7.80
2023-03-20T18:56:16.311Z,6.88
2023-03-20T18:58:43.692Z,9.63
2023-03-20T19:01:12.785Z,7.10
2023-03-20T19:03:42.416Z,8.30
2023-03-20T19:06:15.387Z,7.15
2023-03-20T19:08:42.990Z,7.57
2023-03-20T19:11:17.288Z,7.93
2023-03-20T19:13:49.219Z,7.45
2023-03-20T19:16:18.857Z,8.23
2023-03-20T19:18:45.952Z,8.10
2023-03-20T19:21:12.518Z,8.25
2023-03-20T19:23:39.090Z,9.20
2023-03-20T19:26:06.307Z,10.00
2023-03-20T19:28:40.746Z,5.43
2023-03-20T19:31:09.478Z,3.20
2023-03-20T19:33:38.448Z,2.72
2023-03-20T19:36:06.589Z,3.40
2023-03-20T19:38:34.316Z,4.57
2023-03-20T19:41:02.607Z,6.20
2023-03-20T19:43:29.614Z,5.45
2023-03-20T19:45:59.005Z,4.43
2023-03-20T19:48:46.141Z,3.83
2023-03-20T19:51:26.531Z,2.85
2023-03-20T19:53:54.268Z,3.13
2023-03-20T19:56:22.580Z,3.33
2023-03-20T19:58:49.918Z,3.70
2023-03-20T20:01:19.721Z,3.97
2023-03-20T20:03:46.823Z,4.37
2023-03-20T20:06:13.882Z,4.30
2023-03-20T20:08:49.417Z,4.57
2023-03-20T20:11:20.723Z,3.83
2023-03-20T20:14:05.199Z,4.40
2023-03-20T20:16:35.376Z,5.13
2023-03-20T20:19:02.522Z,5.68
2023-03-20T20:24:18.969Z,4.35
2023-03-20T20:27:00.060Z,5.45
2023-03-20T20:29:39.604Z,4.20
2023-03-20T20:32:06.345Z,3.88
2023-03-20T20:35:30.723Z,5.07
2023-03-20T20:38:09.064Z,4.00
2023-03-20T20:40:07.319Z,4.07
2023-03-20T20:42:33.911Z,4.10
2023-03-20T20:45:00.608Z,5.68
2023-03-20T20:47:27.281Z,4.53
2023-03-20T20:49:53.984Z,4.30
2023-03-20T20:52:20.786Z,4.35
2023-03-20T20:54:48.165Z,2.92
2023-03-20T20:57:15.159Z,3.30
2023-03-20T20:59:41.841Z,3.35
2023-03-20T21:02:15.438Z,4.70
2023-03-20T21:04:43.699Z,4.07
2023-03-20T21:07:13.171Z,4.25
2023-03-20T21:09:40.987Z,3.72
2023-03-20T21:12:09.935Z,4.20
2023-03-20T21:14:37.365Z,4.20
2023-03-20T21:17:06.176Z,3.40
2023-03-20T21:19:36.059Z,3.90
2023-03-20T21:22:03.473Z,4.07
2023-03-20T21:24:33.882Z,3.53
2023-03-20T21:27:11.455Z,4.38
2023-03-20T21:29:38.765Z,3.80
2023-03-20T21:32:06.766Z,3.50
2023-03-20T21:34:34.040Z,3.33
2023-03-20T21:37:29.537Z,3.85
2023-03-20T21:39:51.467Z,4.30
2023-03-20T21:42:19.151Z,5.57
2023-03-20T21:45:26.527Z,4.57
2023-03-20T21:48:23.559Z,4.60
2023-03-20T21:51:02.927Z,3.63
2023-03-20T21:53:49.580Z,3.67
2023-03-20T21:56:40.110Z,3.70
2023-03-20T22:19:00.386Z,3.97
2023-03-20T22:24:36.698Z,3.38
2023-03-20T22:27:18.733Z,4.30
2023-03-20T22:35:46.866Z,5.30
2023-03-20T22:38:21.812Z,5.65
2023-03-20T22:41:13.283Z,5.83
2023-03-20T22:46:16.750Z,4.55
2023-03-20T22:48:45.422Z,5.40
2023-03-20T22:51:13.610Z,5.47
2023-03-20T22:53:40.262Z,6.38
2023-03-20T22:56:07.513Z,5.25
2023-03-20T22:58:34.135Z,4.43
2023-03-20T23:01:01.032Z,4.72
2023-03-20T23:03:41.048Z,4.60
2023-03-20T23:06:09.210Z,4.35
2023-03-20T23:08:47.981Z,7.55
2023-03-20T23:11:17.712Z,6.88
2023-03-20T23:13:45.248Z,6.78
2023-03-20T23:16:12.299Z,6.20
2023-03-20T23:18:39.195Z,5.45
2023-03-20T23:21:06.303Z,6.88
2023-03-20T23:23:32.907Z,5.60
2023-03-20T23:26:07.082Z,6.60
2023-03-20T23:28:35.481Z,5.07
2023-03-20T23:31:10.382Z,8.02
2023-03-20T23:33:38.550Z,5.10
2023-03-20T23:36:18.746Z,6.32
2023-03-20T23:38:51.646Z,6.28
2023-03-20T23:41:19.013Z,7.75
2023-03-20T23:43:45.800Z,6.35
2023-03-20T23:46:14.765Z,6.13
2023-03-20T23:48:41.470Z,5.30
2023-03-20T23:51:08.239Z,6.38
2023-03-20T23:53:34.896Z,6.00
2023-03-20T23:56:01.732Z,5.88
2023-03-20T23:58:28.462Z,5.20
